TimeAKDT,TemperatureF,Dew PointF,Humidity,Sea Level PressureIn,VisibilityMPH,Wind Direction,Wind SpeedMPH,Gust SpeedMPH,PrecipitationIn,Events,Conditions,WindDirDegrees,DateUTC
12:53 AM,32.0,21.9,66,30.54,10.0,NNE,12.7,-,N/A,,Clear,20,2012-10-09 08:53:00
1:53 AM,32.0,21.0,64,30.55,10.0,NNE,11.5,-,N/A,,Clear,20,2012-10-09 09:53:00
2:53 AM,30.9,21.9,69,30.55,10.0,NNE,9.2,-,N/A,,Partly Cloudy,20,2012-10-09 10:53:00
3:53 AM,30.9,21.0,67,30.55,10.0,NNE,8.1,-,N/A,,Clear,30,2012-10-09 11:53:00
4:53 AM,30.9,21.0,67,30.55,10.0,NNE,9.2,-,N/A,,Clear,30,2012-10-09 12:53:00
5:53 AM,23.0,18.0,81,30.55,10.0,Calm,Calm,-,N/A,,Clear,0,2012-10-09 13:53:00
6:53 AM,18.0,15.1,88,30.55,10.0,SW,3.5,-,N/A,,Clear,230,2012-10-09 14:53:00
7:53 AM,18.0,15.1,88,30.55,10.0,SSW,6.9,-,N/A,,Clear,200,2012-10-09 15:53:00
8:53 AM,17.1,14.0,88,30.56,10.0,SSW,5.8,-,N/A,,Clear,210,2012-10-09 16:53:00
9:53 AM,16.0,14.0,92,30.56,10.0,Variable,3.5,-,N/A,,Clear,0,2012-10-09 17:53:00
10:53 AM,30.9,21.9,69,30.57,10.0,NE,11.5,-,N/A,,Clear,50,2012-10-09 18:53:00
11:53 AM,32.0,21.9,66,30.57,10.0,NE,15.0,-,N/A,,Clear,50,2012-10-09 19:53:00
12:53 PM,33.1,21.0,61,30.57,10.0,NE,13.8,-,N/A,,Clear,50,2012-10-09 20:53:00
1:53 PM,33.1,21.0,61,30.56,10.0,NE,17.3,-,N/A,,Clear,50,2012-10-09 21:53:00
2:53 PM,34.0,21.0,59,30.55,10.0,NE,13.8,-,N/A,,Clear,40,2012-10-09 22:53:00
3:53 PM,34.0,21.0,59,30.55,10.0,NE,15.0,-,N/A,,Clear,50,2012-10-09 23:53:00
4:53 PM,34.0,21.9,61,30.54,10.0,NE,12.7,-,N/A,,Clear,50,2012-10-10 00:53:00
5:53 PM,34.0,21.0,59,30.53,10.0,NE,13.8,-,N/A,,Clear,40,2012-10-10 01:53:00
6:53 PM,34.0,21.0,59,30.52,10.0,NE,13.8,-,N/A,,Clear,40,2012-10-10 02:53:00
7:53 PM,33.1,21.0,61,30.52,10.0,NE,15.0,-,N/A,,Clear,50,2012-10-10 03:53:00
8:53 PM,33.1,21.9,64,30.52,10.0,NE,13.8,-,N/A,,Clear,50,2012-10-10 04:53:00
9:53 PM,33.1,21.0,61,30.52,10.0,NE,16.1,-,N/A,,Clear,50,2012-10-10 05:53:00
10:53 PM,33.1,21.9,64,30.52,10.0,ENE,16.1,-,N/A,,Clear,60,2012-10-10 06:53:00
11:53 PM,33.1,21.9,64,30.51,10.0,ENE,16.1,-,N/A,,Clear,60,2012-10-10 07:53:00